Time;durP1;ratioP1;P1;durP2;ratioP2;P2;SDS_P1;SDS_P2;PMS_P1;PMS_P2;Temp;Humidity;BMP_temperature;BMP_pressure;BME280_temperature;BME280_humidity;BME280_pressure;Samples;Min_cycle;Max_cycle;Signal;HPM_P1;HPM_P2
2021/09/18 00:00:23;;;;;;;0.67;0.67;;;12.50;99.90;12.50;100422.00;;;;4977687;28;88848;-63
2021/09/18 00:02:49;;;;;;;0.90;0.80;;;12.50;99.90;12.50;100427.00;;;;4978510;28;96917;-64
2021/09/18 00:05:15;;;;;;;1.43;0.87;;;12.50;99.90;12.50;100428.00;;;;4977706;28;87813;-64
2021/09/18 00:07:41;;;;;;;0.70;0.70;;;12.50;99.90;12.50;100422.00;;;;4977873;28;87820;-64
2021/09/18 00:10:08;;;;;;;0.70;0.63;;;12.50;99.90;12.60;100424.00;;;;4977283;28;118669;-63
2021/09/18 00:12:33;;;;;;;0.77;0.60;;;12.50;99.90;12.60;100417.00;;;;4978003;28;88837;-64
2021/09/18 00:15:01;;;;;;;0.47;0.47;;;12.60;99.90;12.60;100422.00;;;;4977778;28;109669;-63
2021/09/18 00:17:28;;;;;;;1.50;0.70;;;12.60;99.90;12.70;100425.00;;;;4978450;28;87214;-63
2021/09/18 00:19:54;;;;;;;0.60;0.60;;;12.60;99.90;12.70;100420.00;;;;4978649;28;88846;-63
2021/09/18 00:22:19;;;;;;;0.90;0.70;;;12.70;99.90;12.70;100421.00;;;;4977754;28;97384;-62
2021/09/18 00:24:45;;;;;;;6.63;1.00;;;12.70;99.90;12.70;100422.00;;;;4976086;28;109696;-62
2021/09/18 00:27:11;;;;;;;0.60;0.60;;;12.70;99.90;12.80;100422.00;;;;4977008;28;108906;-62
2021/09/18 00:29:37;;;;;;;0.70;0.43;;;12.80;99.90;12.80;100415.00;;;;4976753;28;119004;-63
2021/09/18 00:32:03;;;;;;;0.37;0.37;;;12.80;99.90;12.90;100417.00;;;;4977112;28;118257;-63
2021/09/18 00:34:29;;;;;;;4.20;0.90;;;12.70;99.90;12.90;100427.00;;;;4977328;28;91687;-62
2021/09/18 00:36:55;;;;;;;0.50;0.50;;;12.80;99.90;12.90;100423.00;;;;4978372;28;87674;-64
2021/09/18 00:39:21;;;;;;;0.70;0.60;;;12.90;99.90;12.90;100419.00;;;;4977460;28;88938;-63
2021/09/18 00:41:47;;;;;;;1.40;0.80;;;12.90;99.90;13.00;100419.00;;;;4976854;28;117227;-63
2021/09/18 00:44:19;;;;;;;3.60;0.80;;;12.90;99.90;13.00;100416.00;;;;4977184;28;93833;-64
2021/09/18 00:46:53;;;;;;;0.73;0.57;;;13.00;99.90;13.00;100424.00;;;;4977856;28;108100;-62
2021/09/18 00:49:19;;;;;;;0.67;0.60;;;13.00;99.90;13.00;100429.00;;;;4976652;28;88655;-62
2021/09/18 00:51:46;;;;;;;0.60;0.60;;;13.00;99.90;13.00;100420.00;;;;4977393;28;88494;-63
2021/09/18 00:54:14;;;;;;;0.40;0.40;;;13.00;99.90;13.00;100418.00;;;;4977876;28;87739;-64
2021/09/18 00:56:43;;;;;;;0.97;0.60;;;13.00;99.90;13.10;100419.00;;;;4976967;28;87783;-63
2021/09/18 00:59:09;;;;;;;0.97;0.60;;;13.00;99.90;13.10;100419.00;;;;4977300;28;88148;-64
2021/09/18 01:01:35;;;;;;;0.50;0.50;;;13.00;99.90;13.10;100420.00;;;;4976929;28;87884;-63
2021/09/18 01:04:02;;;;;;;0.60;0.60;;;13.10;99.90;13.10;100419.00;;;;4976006;28;99361;-64
2021/09/18 01:06:28;;;;;;;0.60;0.60;;;13.10;99.90;13.10;100418.00;;;;4974310;28;87135;-64
2021/09/18 01:08:57;;;;;;;0.67;0.67;;;13.10;99.90;13.10;100415.00;;;;4976980;28;89194;-63
2021/09/18 01:11:23;;;;;;;0.43;0.43;;;13.10;99.90;13.10;100420.00;;;;4977258;28;88831;-62
2021/09/18 01:13:50;;;;;;;0.47;0.47;;;13.10;99.90;13.20;100422.00;;;;4976398;28;89319;-63
2021/09/18 01:16:16;;;;;;;0.80;0.37;;;13.10;99.90;13.20;100424.00;;;;4977392;28;87643;-62
2021/09/18 01:18:41;;;;;;;0.50;0.50;;;13.10;99.90;13.20;100417.00;;;;4976698;28;99444;-63
2021/09/18 01:21:10;;;;;;;0.50;0.50;;;13.20;99.90;13.20;100420.00;;;;4976972;28;88162;-63
2021/09/18 01:23:37;;;;;;;0.63;0.63;;;13.20;99.90;13.20;100425.00;;;;4975608;28;110414;-64
2021/09/18 01:26:03;;;;;;;0.43;0.43;;;13.20;99.90;13.20;100422.00;;;;4977196;28;87833;-63
2021/09/18 01:28:29;;;;;;;0.70;0.60;;;13.20;99.90;13.20;100427.00;;;;4976321;28;100236;-64
2021/09/18 01:30:55;;;;;;;0.50;0.50;;;13.70;99.90;13.20;100418.00;;;;4977281;28;110802;-63
2021/09/18 01:33:21;;;;;;;2.67;0.53;;;13.20;99.90;13.20;100424.00;;;;4976253;28;88004;-63
2021/09/18 01:35:47;;;;;;;0.33;0.33;;;13.20;99.90;13.20;100431.00;;;;4975334;28;87931;-63
2021/09/18 01:38:13;;;;;;;0.50;0.43;;;13.20;99.90;13.20;100426.00;;;;4969750;28;89897;-63
2021/09/18 01:40:43;;;;;;;0.40;0.40;;;13.20;99.90;13.20;100434.00;;;;4976446;28;102492;-63
2021/09/18 01:43:11;;;;;;;0.70;0.50;;;13.20;99.90;13.20;100434.00;;;;4976107;28;96815;-62
2021/09/18 01:45:37;;;;;;;0.57;0.57;;;13.20;99.90;13.20;100434.00;;;;4976835;28;87808;-63
2021/09/18 01:48:10;;;;;;;2.73;0.70;;;13.20;99.90;13.20;100438.00;;;;4976010;28;89127;-63
2021/09/18 01:50:42;;;;;;;0.73;0.70;;;13.20;99.90;13.30;100440.00;;;;4976709;28;87759;-63
2021/09/18 01:53:08;;;;;;;0.70;0.60;;;13.20;99.90;13.30;100449.00;;;;4976603;28;87727;-62
2021/09/18 01:55:38;;;;;;;0.30;0.20;;;13.20;99.90;13.30;100442.00;;;;4977473;28;86881;-63
2021/09/18 01:58:05;;;;;;;0.43;0.43;;;13.20;99.90;13.30;100438.00;;;;4975854;28;101564;-62
2021/09/18 02:00:31;;;;;;;0.80;0.60;;;13.20;99.90;13.30;100439.00;;;;4974133;28;88787;-63
2021/09/18 02:02:57;;;;;;;0.60;0.47;;;13.20;99.90;13.30;100442.00;;;;4976491;28;88702;-63
2021/09/18 02:05:26;;;;;;;0.60;0.60;;;13.20;99.90;13.30;100441.00;;;;4972340;28;108859;-63
2021/09/18 02:07:53;;;;;;;0.50;0.50;;;13.30;99.90;13.30;100432.00;;;;4976256;28;90042;-63
2021/09/18 02:10:23;;;;;;;0.47;0.43;;;13.20;99.90;13.30;100432.00;;;;4976573;28;87770;-62
2021/09/18 02:12:49;;;;;;;0.37;0.37;;;13.20;99.90;13.30;100430.00;;;;4976120;28;87899;-62
2021/09/18 02:15:17;;;;;;;0.43;0.43;;;13.30;99.90;13.30;100427.00;;;;4975676;28;105269;-63
2021/09/18 02:17:43;;;;;;;2.13;0.63;;;13.20;99.90;13.30;100435.00;;;;4957345;28;92178;-63
2021/09/18 02:20:14;;;;;;;0.97;0.50;;;13.30;99.90;13.30;100433.00;;;;4976602;28;89218;-63
2021/09/18 02:22:41;;;;;;;0.37;0.37;;;13.30;99.90;13.30;100434.00;;;;4976112;28;87747;-63
2021/09/18 02:25:09;;;;;;;0.37;0.37;;;13.30;99.90;13.30;100424.00;;;;4975712;28;87814;-62
2021/09/18 02:27:35;;;;;;;0.67;0.40;;;13.30;99.90;13.30;100433.00;;;;4974916;28;89301;-62
2021/09/18 02:30:02;;;;;;;0.43;0.43;;;13.20;99.90;13.30;100430.00;;;;4976049;28;90307;-62
2021/09/18 02:32:27;;;;;;;0.27;0.27;;;13.20;99.90;13.30;100431.00;;;;4976307;28;87694;-62
2021/09/18 02:34:53;;;;;;;0.50;0.50;;;13.20;99.90;13.30;100437.00;;;;4975514;28;107484;-62
2021/09/18 02:37:20;;;;;;;1.27;0.80;;;13.20;99.90;13.30;100431.00;;;;4974852;28;117534;-62
2021/09/18 02:39:46;;;;;;;0.80;0.77;;;13.20;99.90;13.30;100432.00;;;;4975188;28;87684;-62
2021/09/18 02:42:12;;;;;;;0.50;0.40;;;13.50;99.90;13.30;100422.00;;;;4975847;28;98544;-62
2021/09/18 02:44:38;;;;;;;0.50;0.50;;;13.20;99.90;13.20;100426.00;;;;4976475;28;87086;-62
2021/09/18 02:47:04;;;;;;;0.40;0.40;;;13.20;99.90;13.20;100420.00;;;;4976061;28;88688;-63
2021/09/18 02:49:30;;;;;;;0.40;0.33;;;13.20;99.90;13.20;100423.00;;;;4975401;28;87939;-63
2021/09/18 02:51:55;;;;;;;0.60;0.50;;;13.50;99.90;13.20;100422.00;;;;4974478;28;109897;-64
2021/09/18 02:54:21;;;;;;;1.43;0.60;;;13.20;99.90;13.20;100420.00;;;;4975831;28;87886;-63
2021/09/18 02:56:47;;;;;;;0.50;0.50;;;13.20;99.90;13.20;100413.00;;;;4974244;28;117779;-64
2021/09/18 02:59:12;;;;;;;0.37;0.30;;;13.20;99.90;13.20;100422.00;;;;4975710;28;88396;-63
2021/09/18 03:01:38;;;;;;;0.70;0.50;;;13.20;99.90;13.20;100416.00;;;;4975738;28;87615;-63
2021/09/18 03:04:04;;;;;;;0.50;0.50;;;13.20;99.90;13.20;100408.00;;;;4974646;28;108711;-62
2021/09/18 03:06:30;;;;;;;0.50;0.50;;;13.10;99.90;13.20;100410.00;;;;4974038;28;114880;-63
2021/09/18 03:08:55;;;;;;;0.60;0.50;;;13.10;99.90;13.20;100411.00;;;;4976079;28;87672;-63
2021/09/18 03:11:22;;;;;;;0.50;0.50;;;13.10;99.90;13.10;100414.00;;;;4975344;28;88144;-63
2021/09/18 03:13:49;;;;;;;0.60;0.53;;;13.10;99.90;13.10;100402.00;;;;4975922;28;87704;-63
2021/09/18 03:16:14;;;;;;;0.40;0.40;;;13.10;99.90;13.10;100397.00;;;;4975150;28;88710;-62
2021/09/18 03:18:40;;;;;;;0.60;0.60;;;13.10;99.90;13.10;100401.00;;;;4974398;28;100864;-63
2021/09/18 03:21:06;;;;;;;0.60;0.40;;;13.10;99.90;13.10;100401.00;;;;4975563;28;87878;-63
2021/09/18 03:23:32;;;;;;;0.63;0.40;;;13.10;99.90;13.10;100399.00;;;;4974735;28;89892;-63
2021/09/18 03:25:58;;;;;;;0.30;0.30;;;13.10;99.90;13.10;100393.00;;;;4976328;28;89043;-62
2021/09/18 03:28:24;;;;;;;0.63;0.50;;;13.10;99.90;13.10;100389.00;;;;4978550;28;88075;-63
2021/09/18 03:30:50;;;;;;;0.50;0.50;;;13.60;99.90;13.10;100396.00;;;;4979158;28;87821;-62
2021/09/18 03:33:15;;;;;;;0.77;0.77;;;13.10;99.90;13.10;100396.00;;;;4977776;28;107504;-63
2021/09/18 03:35:42;;;;;;;0.47;0.47;;;13.10;99.90;13.10;100390.00;;;;4978072;28;119131;-64
2021/09/18 03:38:11;;;;;;;0.50;0.50;;;13.20;99.90;13.10;100386.00;;;;4978677;28;88435;-62
2021/09/18 03:40:37;;;;;;;0.67;0.67;;;13.10;99.90;13.10;100387.00;;;;4978403;28;89114;-63
2021/09/18 03:43:03;;;;;;;0.60;0.50;;;13.10;99.90;13.10;100393.00;;;;4978470;28;87698;-62
2021/09/18 03:45:29;;;;;;;4.13;0.90;;;13.10;99.90;13.10;100399.00;;;;4978154;28;89302;-63
2021/09/18 03:47:55;;;;;;;1.00;0.90;;;13.10;99.90;13.10;100393.00;;;;4977677;28;116220;-63
2021/09/18 03:50:20;;;;;;;1.23;0.70;;;13.10;99.90;13.10;100390.00;;;;4977978;28;110500;-62
2021/09/18 03:52:46;;;;;;;0.40;0.40;;;13.00;99.90;13.10;100393.00;;;;4968005;28;87716;-64
2021/09/18 03:55:12;;;;;;;0.40;0.40;;;13.10;99.90;13.10;100402.00;;;;4970921;28;116424;-64
2021/09/18 03:57:38;;;;;;;1.07;0.70;;;13.10;99.90;13.10;100396.00;;;;4978268;28;106399;-63
2021/09/18 04:00:06;;;;;;;1.93;1.00;;;13.10;99.90;13.10;100401.00;;;;4978586;28;87760;-63
2021/09/18 04:02:32;;;;;;;1.00;0.80;;;13.10;99.90;13.10;100396.00;;;;4978324;28;87723;-63
2021/09/18 04:04:57;;;;;;;3.30;1.03;;;13.10;99.90;13.10;100406.00;;;;4976629;28;120348;-63
2021/09/18 04:07:23;;;;;;;0.57;0.57;;;13.10;99.90;13.10;100399.00;;;;4977386;28;118388;-63
2021/09/18 04:09:49;;;;;;;0.63;0.63;;;13.00;99.90;13.10;100395.00;;;;4977239;28;111011;-63
2021/09/18 04:12:15;;;;;;;0.73;0.73;;;13.10;99.90;13.10;100400.00;;;;4978261;28;87674;-63
2021/09/18 04:14:41;;;;;;;0.87;0.83;;;13.10;99.90;13.10;100400.00;;;;4977794;28;88915;-63
2021/09/18 04:17:07;;;;;;;1.13;0.90;;;13.10;99.90;13.10;100407.00;;;;4976253;28;88487;-63
2021/09/18 04:19:33;;;;;;;1.23;0.90;;;13.10;99.90;13.10;100399.00;;;;4977671;28;104316;-62
2021/09/18 04:21:58;;;;;;;1.30;0.80;;;13.10;99.90;13.10;100399.00;;;;4977949;28;108823;-62
2021/09/18 04:24:24;;;;;;;1.00;1.00;;;13.10;99.90;13.10;100396.00;;;;4976825;28;110342;-62
2021/09/18 04:26:49;;;;;;;0.70;0.70;;;13.10;99.90;13.10;100391.00;;;;4976155;28;113661;-64
2021/09/18 04:29:15;;;;;;;0.83;0.83;;;13.10;99.90;13.10;100406.00;;;;4976865;28;108691;-64
2021/09/18 04:31:43;;;;;;;1.03;0.87;;;13.10;99.90;13.10;100396.00;;;;4976349;28;108845;-64
2021/09/18 04:34:09;;;;;;;1.20;0.80;;;13.10;99.90;13.10;100409.00;;;;4977799;28;88081;-64
2021/09/18 04:36:35;;;;;;;0.67;0.67;;;13.00;99.90;13.10;100393.00;;;;4974576;28;110132;-63
2021/09/18 04:39:01;;;;;;;0.93;0.90;;;13.10;99.90;13.10;100409.00;;;;4978131;28;87961;-64
2021/09/18 04:41:26;;;;;;;1.13;1.03;;;13.10;99.90;13.10;100413.00;;;;4976736;28;109306;-64
2021/09/18 04:43:53;;;;;;;1.43;1.10;;;13.10;99.90;13.10;100413.00;;;;4977245;28;102160;-64
2021/09/18 04:46:20;;;;;;;0.60;0.60;;;13.10;99.90;13.10;100419.00;;;;4977652;28;98303;-66
2021/09/18 04:48:46;;;;;;;1.13;1.03;;;13.10;99.90;13.10;100409.00;;;;4977327;28;90147;-64
2021/09/18 04:51:11;;;;;;;1.17;0.70;;;13.10;99.90;13.10;100411.00;;;;4977778;28;87926;-66
2021/09/18 04:53:37;;;;;;;0.70;0.70;;;13.10;99.90;13.10;100417.00;;;;4959130;28;119337;-64
2021/09/18 04:56:03;;;;;;;0.67;0.67;;;13.10;99.90;13.10;100413.00;;;;4975404;28;119490;-64
2021/09/18 04:58:30;;;;;;;1.40;0.90;;;13.10;99.90;13.10;100412.00;;;;4977225;28;87755;-64
2021/09/18 05:00:57;;;;;;;0.80;0.70;;;13.10;99.90;13.10;100419.00;;;;4978198;28;87797;-64
2021/09/18 05:03:22;;;;;;;1.10;0.90;;;13.10;99.90;13.20;100421.00;;;;4960893;28;89005;-65
2021/09/18 05:05:48;;;;;;;2.07;0.90;;;13.10;99.90;13.10;100421.00;;;;4976248;28;116938;-65
2021/09/18 05:08:15;;;;;;;1.10;1.00;;;13.10;99.90;13.20;100428.00;;;;4978968;28;87627;-65
2021/09/18 05:10:41;;;;;;;0.70;0.70;;;13.10;99.90;13.20;100431.00;;;;4977926;28;87104;-65
2021/09/18 05:13:07;;;;;;;1.00;1.00;;;13.10;99.90;13.20;100430.00;;;;4977144;28;88189;-64
2021/09/18 05:15:32;;;;;;;0.83;0.83;;;13.10;99.90;13.20;100427.00;;;;4978378;28;116053;-64
2021/09/18 05:17:58;;;;;;;1.13;1.00;;;13.10;99.90;13.20;100432.00;;;;4976343;28;110888;-64
2021/09/18 05:20:24;;;;;;;0.73;0.73;;;13.30;99.90;13.20;100426.00;;;;4974567;28;109563;-64
2021/09/18 05:22:49;;;;;;;0.70;0.70;;;13.20;99.90;13.20;100429.00;;;;4976341;28;100079;-63
2021/09/18 05:25:15;;;;;;;1.67;1.07;;;13.20;99.90;13.30;100434.00;;;;4976039;28;117642;-63
2021/09/18 05:27:41;;;;;;;1.37;0.97;;;13.20;99.90;13.30;100439.00;;;;4975712;28;110709;-65
2021/09/18 05:30:08;;;;;;;0.73;0.60;;;13.20;99.90;13.30;100435.00;;;;4976353;28;108178;-64
2021/09/18 05:32:34;;;;;;;2.17;0.73;;;13.30;99.90;13.30;100442.00;;;;4976452;28;89043;-64
2021/09/18 05:35:00;;;;;;;2.30;1.00;;;13.30;99.90;13.30;100448.00;;;;4977328;28;91215;-64
2021/09/18 05:37:26;;;;;;;1.77;1.10;;;13.30;99.90;13.30;100443.00;;;;4975884;28;110696;-64
2021/09/18 05:39:51;;;;;;;1.33;0.80;;;13.30;99.90;13.40;100443.00;;;;4976109;28;109016;-64
2021/09/18 05:42:17;;;;;;;1.10;0.80;;;13.30;99.90;13.40;100442.00;;;;4973743;28;118726;-62
2021/09/18 05:44:43;;;;;;;0.53;0.50;;;13.30;99.90;13.40;100439.00;;;;4963998;28;96720;-65
2021/09/18 05:47:09;;;;;;;2.00;0.73;;;13.30;99.90;13.40;100450.00;;;;4962555;28;87811;-63
2021/09/18 05:49:35;;;;;;;0.80;0.70;;;13.40;99.90;13.40;100442.00;;;;4953892;28;101644;-63
2021/09/18 05:52:01;;;;;;;1.70;0.73;;;13.40;99.90;13.40;100439.00;;;;4959607;28;118702;-63
2021/09/18 05:54:29;;;;;;;0.50;0.50;;;13.40;99.90;13.50;100443.00;;;;4953175;28;88098;-63
2021/09/18 05:56:55;;;;;;;1.23;0.77;;;13.40;99.90;13.50;100446.00;;;;4961480;28;87790;-62
2021/09/18 05:59:22;;;;;;;1.43;0.97;;;13.50;99.90;13.50;100451.00;;;;4955719;28;108095;-62
2021/09/18 06:01:48;;;;;;;0.70;0.70;;;13.50;99.90;13.50;100448.00;;;;4958773;28;119199;-63
2021/09/18 06:04:14;;;;;;;0.60;0.60;;;13.50;99.90;13.60;100451.00;;;;4952937;28;117495;-63
2021/09/18 06:06:39;;;;;;;0.97;0.80;;;13.50;99.90;13.60;100458.00;;;;4957785;28;111537;-63
2021/09/18 06:09:05;;;;;;;1.07;0.90;;;13.50;99.90;13.60;100449.00;;;;4954757;28;108195;-63
2021/09/18 06:11:31;;;;;;;0.57;0.57;;;13.50;99.90;13.60;100454.00;;;;4957382;28;116981;-63
2021/09/18 06:13:56;;;;;;;0.73;0.70;;;13.60;99.90;13.70;100444.00;;;;4968098;28;88607;-64
2021/09/18 06:16:23;;;;;;;0.70;0.70;;;13.60;99.90;13.70;100446.00;;;;4960324;28;111508;-64
2021/09/18 06:18:50;;;;;;;1.60;0.60;;;13.60;99.90;13.70;100448.00;;;;4953906;28;87821;-65
2021/09/18 06:21:16;;;;;;;0.70;0.70;;;13.70;99.90;13.70;100446.00;;;;4953643;28;87850;-63
2021/09/18 06:23:41;;;;;;;9.23;0.87;;;13.60;99.90;13.70;100453.00;;;;4955707;28;88385;-64
2021/09/18 06:26:08;;;;;;;0.60;0.60;;;13.70;99.90;13.80;100456.00;;;;4955249;28;88501;-63
2021/09/18 06:28:35;;;;;;;2.40;1.00;;;13.70;99.90;13.80;100459.00;;;;4953641;28;88034;-64
2021/09/18 06:31:01;;;;;;;0.90;0.90;;;13.70;99.90;13.80;100459.00;;;;4959330;28;89468;-62
2021/09/18 06:33:27;;;;;;;0.73;0.73;;;13.80;99.90;13.80;100453.00;;;;4958011;28;89443;-64
2021/09/18 06:35:53;;;;;;;0.80;0.70;;;13.80;99.90;13.90;100453.00;;;;4957521;28;87916;-64
2021/09/18 06:38:22;;;;;;;1.50;0.70;;;13.80;99.90;13.90;100453.00;;;;4956084;28;93310;-64
2021/09/18 06:40:50;;;;;;;0.60;0.50;;;13.80;99.90;13.90;100446.00;;;;4953512;28;87757;-63
2021/09/18 06:43:16;;;;;;;0.40;0.40;;;13.80;99.90;14.00;100463.00;;;;4955844;28;88558;-62
2021/09/18 06:45:41;;;;;;;0.67;0.50;;;13.90;99.90;14.00;100455.00;;;;4962177;28;87925;-63
2021/09/18 06:48:07;;;;;;;0.63;0.60;;;13.90;99.90;14.10;100469.00;;;;4953624;28;91744;-64
2021/09/18 06:50:33;;;;;;;0.67;0.60;;;13.90;99.90;14.10;100465.00;;;;4959708;28;118126;-63
2021/09/18 06:52:59;;;;;;;0.90;0.87;;;14.00;99.90;14.20;100460.00;;;;4964436;28;88574;-63
2021/09/18 06:55:24;;;;;;;1.23;0.63;;;14.00;99.90;14.20;100466.00;;;;4965821;28;111678;-63
2021/09/18 06:57:50;;;;;;;1.37;0.60;;;14.10;99.90;14.20;100462.00;;;;4952335;28;104991;-63
2021/09/18 07:00:16;;;;;;;3.03;0.90;;;14.10;99.90;14.30;100463.00;;;;4953597;28;117185;-65
2021/09/18 07:02:42;;;;;;;0.93;0.80;;;14.20;99.90;14.40;100470.00;;;;4954715;28;87671;-63
2021/09/18 07:05:09;;;;;;;0.83;0.67;;;14.20;99.90;14.40;100470.00;;;;4954320;28;108536;-64
2021/09/18 07:07:36;;;;;;;2.47;0.80;;;14.30;99.90;14.40;100466.00;;;;4953159;28;87899;-63
2021/09/18 07:10:02;;;;;;;0.93;0.80;;;14.30;99.90;14.50;100473.00;;;;4955300;28;91081;-64
2021/09/18 07:12:28;;;;;;;1.30;0.70;;;14.40;99.90;14.50;100469.00;;;;4953988;28;101721;-64
2021/09/18 07:14:54;;;;;;;2.03;0.90;;;14.40;99.90;14.50;100471.00;;;;4952250;28;110550;-65
2021/09/18 07:17:19;;;;;;;0.87;0.70;;;14.40;99.90;14.50;100474.00;;;;4962675;28;109005;-63
2021/09/18 07:19:45;;;;;;;1.07;0.63;;;14.40;99.90;14.60;100470.00;;;;4952280;28;89393;-63
2021/09/18 07:22:11;;;;;;;0.70;0.70;;;14.50;99.90;14.60;100475.00;;;;4953673;28;119003;-63
2021/09/18 07:24:36;;;;;;;0.70;0.70;;;14.50;99.90;14.60;100478.00;;;;4958098;28;110323;-65
2021/09/18 07:27:02;;;;;;;0.93;0.67;;;14.50;99.90;14.60;100476.00;;;;4959113;28;97162;-63
2021/09/18 07:29:28;;;;;;;1.00;0.70;;;14.50;99.90;14.60;100482.00;;;;4951748;28;97562;-65
2021/09/18 07:31:54;;;;;;;0.60;0.60;;;14.80;99.90;14.70;100472.00;;;;4951720;28;117558;-64
2021/09/18 07:34:21;;;;;;;0.40;0.33;;;14.60;99.90;14.70;100475.00;;;;4951848;28;87789;-64
2021/09/18 07:36:47;;;;;;;0.47;0.43;;;14.60;99.90;14.70;100482.00;;;;4954538;28;87119;-65
2021/09/18 07:39:13;;;;;;;1.03;0.70;;;14.60;99.90;14.70;100479.00;;;;4956627;28;88866;-65
2021/09/18 07:41:39;;;;;;;0.70;0.50;;;14.90;99.90;14.80;100493.00;;;;4956322;28;102564;-63
2021/09/18 07:44:04;;;;;;;0.60;0.50;;;14.70;99.90;14.80;100492.00;;;;4952478;28;89139;-65
2021/09/18 07:46:30;;;;;;;0.97;0.50;;;14.70;99.90;14.80;100491.00;;;;4952653;28;108125;-64
2021/09/18 07:48:58;;;;;;;1.23;0.60;;;14.70;99.90;14.80;100488.00;;;;4962638;28;88688;-64
2021/09/18 07:51:24;;;;;;;0.50;0.50;;;14.70;99.90;14.80;100491.00;;;;4956627;28;87775;-64
2021/09/18 07:53:50;;;;;;;0.40;0.30;;;14.70;99.90;14.80;100488.00;;;;4953338;28;87640;-63
2021/09/18 07:56:16;;;;;;;0.50;0.50;;;14.70;99.90;14.80;100486.00;;;;4957441;28;87482;-64
2021/09/18 07:58:42;;;;;;;2.10;0.57;;;14.70;99.90;14.80;100487.00;;;;4951032;28;118159;-64
2021/09/18 08:01:08;;;;;;;1.03;0.80;;;14.70;99.90;14.80;100485.00;;;;4951891;28;99720;-65
2021/09/18 08:03:34;;;;;;;0.70;0.70;;;14.70;99.90;14.80;100488.00;;;;4959146;28;88230;-64
2021/09/18 08:06:00;;;;;;;0.57;0.57;;;14.70;99.90;14.70;100493.00;;;;4962706;28;109816;-65
2021/09/18 08:08:26;;;;;;;3.03;1.13;;;14.70;99.90;14.70;100498.00;;;;4952993;28;88906;-63
2021/09/18 08:10:52;;;;;;;0.90;0.67;;;14.60;99.90;14.60;100494.00;;;;4958979;28;89322;-64
2021/09/18 08:13:17;;;;;;;1.10;1.00;;;14.60;99.90;14.60;100495.00;;;;4961491;28;87766;-64
2021/09/18 08:15:43;;;;;;;1.50;1.10;;;14.50;99.90;14.50;100497.00;;;;4956046;28;101897;-64
2021/09/18 08:18:09;;;;;;;1.17;0.80;;;14.40;99.90;14.30;100493.00;;;;4956057;28;115159;-64
2021/09/18 08:20:35;;;;;;;1.53;1.07;;;14.30;99.90;14.20;100494.00;;;;4961897;28;118282;-64
2021/09/18 08:23:00;;;;;;;1.17;1.07;;;14.20;99.90;14.20;100497.00;;;;4961867;28;90209;-63
2021/09/18 08:25:26;;;;;;;2.73;1.23;;;14.20;99.90;14.20;100500.00;;;;4956213;28;87023;-66
2021/09/18 08:27:52;;;;;;;1.60;0.90;;;14.20;99.90;14.30;100497.00;;;;4964322;28;88485;-64
2021/09/18 08:30:18;;;;;;;1.10;0.97;;;14.20;99.90;14.30;100505.00;;;;4954489;28;88048;-64
2021/09/18 08:32:45;;;;;;;1.97;1.20;;;14.20;99.90;14.40;100500.00;;;;4962103;28;89227;-64
2021/09/18 08:35:11;;;;;;;1.80;0.97;;;14.30;99.90;14.40;100500.00;;;;4958727;28;108945;-63
2021/09/18 08:37:38;;;;;;;2.23;1.20;;;14.30;99.90;14.50;100502.00;;;;4956050;28;89133;-64
2021/09/18 08:40:05;;;;;;;0.73;0.73;;;14.30;99.90;14.50;100505.00;;;;4963190;28;87758;-64
2021/09/18 08:42:31;;;;;;;1.23;1.00;;;14.40;99.90;14.50;100507.00;;;;4957085;28;87943;-63
2021/09/18 08:44:57;;;;;;;1.40;1.30;;;14.40;99.90;14.60;100506.00;;;;4957284;28;87777;-65
2021/09/18 08:47:24;;;;;;;2.77;1.63;;;14.50;99.90;14.60;100506.00;;;;4959768;28;118670;-64
2021/09/18 08:49:51;;;;;;;1.10;0.90;;;14.50;99.90;14.70;100507.00;;;;4958897;28;87624;-63
2021/09/18 08:52:17;;;;;;;1.20;1.10;;;14.60;99.90;14.70;100515.00;;;;4964351;28;87897;-63
2021/09/18 08:54:43;;;;;;;2.03;1.03;;;14.60;99.90;14.70;100526.00;;;;4955432;28;87999;-62
2021/09/18 08:57:12;;;;;;;0.83;0.83;;;14.60;99.90;14.70;100522.00;;;;4960152;28;118477;-64
2021/09/18 08:59:39;;;;;;;0.70;0.70;;;14.60;99.90;14.70;100532.00;;;;4955184;28;89003;-64
2021/09/18 09:02:18;;;;;;;0.60;0.60;;;14.60;99.90;14.60;100530.00;;;;4962512;28;87742;-65
2021/09/18 09:04:45;;;;;;;2.07;1.27;;;14.60;99.90;14.60;100522.00;;;;4950220;28;87935;-64
2021/09/18 09:07:15;;;;;;;2.73;1.30;;;14.50;99.90;14.50;100521.00;;;;4964270;28;88511;-65
2021/09/18 09:09:59;;;;;;;1.57;1.00;;;14.50;99.90;14.40;100535.00;;;;4961000;28;88046;-64
2021/09/18 09:12:32;;;;;;;0.87;0.87;;;14.40;99.90;14.30;100533.00;;;;4954499;28;87965;-64
2021/09/18 09:15:03;;;;;;;1.20;1.10;;;14.60;99.90;14.30;100532.00;;;;4963099;28;87490;-65
2021/09/18 09:17:32;;;;;;;1.97;1.23;;;14.20;99.90;14.30;100539.00;;;;4954632;28;89334;-64
2021/09/18 09:19:59;;;;;;;1.80;0.97;;;14.30;99.90;14.20;100533.00;;;;4962651;28;87543;-64
2021/09/18 09:22:46;;;;;;;1.37;1.00;;;14.20;99.90;14.20;100544.00;;;;4958428;28;89047;-65
2021/09/18 09:25:24;;;;;;;1.30;1.20;;;14.20;99.90;14.20;100542.00;;;;4954755;28;87811;-65
2021/09/18 09:27:50;;;;;;;1.90;1.30;;;14.40;99.90;14.20;100547.00;;;;4958548;28;89002;-64
2021/09/18 09:30:31;;;;;;;1.47;1.30;;;14.20;99.90;14.20;100545.00;;;;4961724;28;114105;-63
2021/09/18 09:33:06;;;;;;;1.67;1.47;;;14.20;99.90;14.20;100541.00;;;;4955761;28;87868;-63
2021/09/18 09:35:32;;;;;;;1.90;1.47;;;14.20;99.90;14.20;100543.00;;;;4956626;28;87766;-64
2021/09/18 09:37:58;;;;;;;1.87;1.73;;;14.20;99.90;14.20;100543.00;;;;4956617;28;88308;-63
2021/09/18 09:40:39;;;;;;;2.43;1.87;;;14.10;99.90;14.20;100544.00;;;;4954781;28;87894;-64
2021/09/18 09:43:09;;;;;;;2.47;1.73;;;14.10;99.90;14.20;100544.00;;;;4960124;28;87934;-63
2021/09/18 09:45:36;;;;;;;2.00;1.70;;;14.10;99.90;14.20;100540.00;;;;4954679;28;87807;-65
2021/09/18 09:48:14;;;;;;;2.10;1.90;;;14.10;99.90;14.20;100545.00;;;;4955643;28;89733;-64
2021/09/18 09:50:45;;;;;;;2.10;1.77;;;14.10;99.90;14.20;100540.00;;;;4960557;28;87955;-64
2021/09/18 09:53:32;;;;;;;2.23;1.57;;;14.20;99.90;14.20;100539.00;;;;4961281;28;87851;-64
2021/09/18 09:55:58;;;;;;;2.33;1.90;;;14.10;99.90;14.20;100539.00;;;;4954955;28;94159;-65
2021/09/18 09:58:23;;;;;;;2.17;1.97;;;14.20;99.90;14.30;100550.00;;;;4957451;28;88008;-64
2021/09/18 10:00:52;;;;;;;2.33;2.13;;;14.20;99.90;14.30;100543.00;;;;4958426;28;87885;-64
2021/09/18 10:03:23;;;;;;;5.33;2.27;;;14.20;99.90;14.30;100541.00;;;;4971973;28;87870;-64
2021/09/18 10:05:50;;;;;;;3.10;2.07;;;14.20;99.90;14.30;100543.00;;;;4961380;28;87057;-64
2021/09/18 10:08:23;;;;;;;3.30;2.53;;;14.20;99.90;14.30;100544.00;;;;4957909;28;88032;-64
2021/09/18 10:10:51;;;;;;;4.33;2.33;;;14.10;99.90;14.30;100543.00;;;;4956457;28;88058;-64
2021/09/18 10:13:22;;;;;;;2.43;2.10;;;14.20;99.90;14.30;100543.00;;;;4956736;28;88789;-64
2021/09/18 10:15:50;;;;;;;2.73;2.43;;;14.20;99.90;14.30;100542.00;;;;4965179;28;87820;-64
2021/09/18 10:18:16;;;;;;;1.80;1.57;;;14.20;99.90;14.40;100539.00;;;;4953925;28;93332;-64
2021/09/18 10:23:21;;;;;;;1.83;1.73;;;14.30;99.90;14.50;100539.00;;;;4951529;28;87759;-65
2021/09/18 10:25:58;;;;;;;2.63;1.90;;;14.40;99.90;14.50;100538.00;;;;4954919;28;88547;-65
2021/09/18 10:28:45;;;;;;;1.87;1.70;;;14.40;99.90;14.50;100543.00;;;;4949445;28;88562;-64
2021/09/18 10:31:18;;;;;;;1.70;1.60;;;14.40;99.90;14.60;100543.00;;;;4965246;28;101695;-63
2021/09/18 10:33:49;;;;;;;1.83;1.60;;;14.50;99.90;14.60;100542.00;;;;4967835;28;87688;-63
2021/09/18 10:36:44;;;;;;;5.43;1.90;;;14.50;99.90;14.60;100551.00;;;;4954824;28;87483;-64
2021/09/18 10:39:19;;;;;;;2.27;2.03;;;14.50;99.90;14.60;100545.00;;;;4960593;28;88669;-64
2021/09/18 10:42:00;;;;;;;1.40;1.30;;;14.60;99.90;14.60;100544.00;;;;4956835;28;89761;-64
2021/09/18 10:44:50;;;;;;;3.73;2.07;;;14.60;99.90;14.60;100553.00;;;;4953420;28;88060;-63
2021/09/18 10:47:43;;;;;;;1.73;1.63;;;14.50;99.90;14.60;100546.00;;;;4952728;28;87788;-64